sensor_id;sensor_type;location;lat;lon;timestamp;P1;durP1;ratioP1;P2;durP2;ratioP2
74632;SDS011;63139;52.018;8.552;2023-05-17T00:02:30;6.18;;;3.10;;
74632;SDS011;63139;52.018;8.552;2023-05-17T00:04:58;8.57;;;3.15;;
74632;SDS011;63139;52.018;8.552;2023-05-17T00:07:26;6.30;;;2.33;;
74632;SDS011;63139;52.018;8.552;2023-05-17T00:09:56;7.57;;;2.78;;
74632;SDS011;63139;52.018;8.552;2023-05-17T00:12:24;8.35;;;3.65;;
74632;SDS011;63139;52.018;8.552;2023-05-17T00:14:52;8.48;;;2.88;;
74632;SDS011;63139;52.018;8.552;2023-05-17T00:17:20;8.52;;;3.20;;
74632;SDS011;63139;52.018;8.552;2023-05-17T00:19:48;7.72;;;3.20;;
74632;SDS011;63139;52.018;8.552;2023-05-17T00:22:17;7.50;;;2.65;;
74632;SDS011;63139;52.018;8.552;2023-05-17T00:24:45;6.30;;;2.70;;
74632;SDS011;63139;52.018;8.552;2023-05-17T00:27:14;7.88;;;2.80;;
74632;SDS011;63139;52.018;8.552;2023-05-17T00:29:43;9.90;;;3.60;;
74632;SDS011;63139;52.018;8.552;2023-05-17T00:32:11;10.82;;;3.63;;
74632;SDS011;63139;52.018;8.552;2023-05-17T00:34:42;12.35;;;3.13;;
74632;SDS011;63139;52.018;8.552;2023-05-17T00:37:10;9.63;;;3.20;;
74632;SDS011;63139;52.018;8.552;2023-05-17T00:39:38;12.27;;;3.20;;
74632;SDS011;63139;52.018;8.552;2023-05-17T00:42:07;7.82;;;2.80;;
74632;SDS011;63139;52.018;8.552;2023-05-17T00:44:37;11.85;;;3.53;;
74632;SDS011;63139;52.018;8.552;2023-05-17T00:47:05;10.85;;;3.22;;
74632;SDS011;63139;52.018;8.552;2023-05-17T00:49:33;6.82;;;2.75;;
74632;SDS011;63139;52.018;8.552;2023-05-17T00:52:01;11.82;;;3.70;;
74632;SDS011;63139;52.018;8.552;2023-05-17T00:54:34;12.93;;;3.38;;
74632;SDS011;63139;52.018;8.552;2023-05-17T00:57:02;15.13;;;3.28;;
74632;SDS011;63139;52.018;8.552;2023-05-17T00:59:32;10.43;;;3.45;;
74632;SDS011;63139;52.018;8.552;2023-05-17T01:02:04;7.93;;;3.28;;
74632;SDS011;63139;52.018;8.552;2023-05-17T01:04:33;10.13;;;3.53;;
74632;SDS011;63139;52.018;8.552;2023-05-17T01:07:01;12.10;;;3.60;;
74632;SDS011;63139;52.018;8.552;2023-05-17T01:09:30;10.32;;;3.88;;
74632;SDS011;63139;52.018;8.552;2023-05-17T01:12:01;10.50;;;3.55;;
74632;SDS011;63139;52.018;8.552;2023-05-17T01:14:40;9.45;;;2.85;;
74632;SDS011;63139;52.018;8.552;2023-05-17T01:17:21;8.70;;;2.90;;
74632;SDS011;63139;52.018;8.552;2023-05-17T01:19:56;9.65;;;3.35;;
74632;SDS011;63139;52.018;8.552;2023-05-17T01:22:35;11.60;;;3.70;;
74632;SDS011;63139;52.018;8.552;2023-05-17T01:25:11;14.50;;;3.80;;
74632;SDS011;63139;52.018;8.552;2023-05-17T01:27:54;5.88;;;2.70;;
74632;SDS011;63139;52.018;8.552;2023-05-17T01:30:26;8.43;;;3.38;;
74632;SDS011;63139;52.018;8.552;2023-05-17T01:32:56;15.82;;;4.70;;
74632;SDS011;63139;52.018;8.552;2023-05-17T01:35:25;12.82;;;3.83;;
74632;SDS011;63139;52.018;8.552;2023-05-17T01:37:54;8.52;;;3.75;;
74632;SDS011;63139;52.018;8.552;2023-05-17T01:40:22;10.00;;;4.78;;
74632;SDS011;63139;52.018;8.552;2023-05-17T01:42:52;8.48;;;3.75;;
74632;SDS011;63139;52.018;8.552;2023-05-17T01:45:25;13.70;;;4.43;;
74632;SDS011;63139;52.018;8.552;2023-05-17T01:47:59;8.05;;;3.83;;
74632;SDS011;63139;52.018;8.552;2023-05-17T01:50:37;19.48;;;4.28;;
74632;SDS011;63139;52.018;8.552;2023-05-17T01:53:09;8.23;;;3.92;;
74632;SDS011;63139;52.018;8.552;2023-05-17T01:55:44;9.90;;;3.85;;
74632;SDS011;63139;52.018;8.552;2023-05-17T01:58:23;9.13;;;3.53;;
74632;SDS011;63139;52.018;8.552;2023-05-17T02:00:53;8.20;;;3.50;;
74632;SDS011;63139;52.018;8.552;2023-05-17T02:03:23;13.98;;;3.67;;
74632;SDS011;63139;52.018;8.552;2023-05-17T02:05:51;10.75;;;3.72;;
74632;SDS011;63139;52.018;8.552;2023-05-17T02:08:19;9.57;;;3.60;;
74632;SDS011;63139;52.018;8.552;2023-05-17T02:10:47;10.73;;;3.85;;
74632;SDS011;63139;52.018;8.552;2023-05-17T02:13:15;13.00;;;4.07;;
74632;SDS011;63139;52.018;8.552;2023-05-17T02:15:45;12.93;;;4.50;;
74632;SDS011;63139;52.018;8.552;2023-05-17T02:18:13;11.95;;;4.45;;
74632;SDS011;63139;52.018;8.552;2023-05-17T02:20:41;7.00;;;3.67;;
74632;SDS011;63139;52.018;8.552;2023-05-17T02:23:10;15.98;;;5.18;;
74632;SDS011;63139;52.018;8.552;2023-05-17T02:25:38;12.13;;;5.00;;
74632;SDS011;63139;52.018;8.552;2023-05-17T02:28:06;14.60;;;4.50;;
74632;SDS011;63139;52.018;8.552;2023-05-17T02:30:34;11.18;;;4.22;;
74632;SDS011;63139;52.018;8.552;2023-05-17T02:33:04;10.63;;;4.55;;
74632;SDS011;63139;52.018;8.552;2023-05-17T02:35:32;15.82;;;5.13;;
74632;SDS011;63139;52.018;8.552;2023-05-17T02:38:00;8.13;;;3.63;;
74632;SDS011;63139;52.018;8.552;2023-05-17T02:40:28;12.27;;;4.60;;
74632;SDS011;63139;52.018;8.552;2023-05-17T02:42:56;8.32;;;4.10;;
74632;SDS011;63139;52.018;8.552;2023-05-17T02:45:24;14.02;;;4.80;;
74632;SDS011;63139;52.018;8.552;2023-05-17T02:47:53;9.15;;;4.32;;
74632;SDS011;63139;52.018;8.552;2023-05-17T02:50:23;19.65;;;4.90;;
74632;SDS011;63139;52.018;8.552;2023-05-17T02:52:51;12.63;;;4.65;;
74632;SDS011;63139;52.018;8.552;2023-05-17T02:55:19;12.52;;;4.00;;
74632;SDS011;63139;52.018;8.552;2023-05-17T02:57:47;9.77;;;3.90;;
74632;SDS011;63139;52.018;8.552;2023-05-17T03:00:16;10.98;;;4.38;;
74632;SDS011;63139;52.018;8.552;2023-05-17T03:02:44;12.88;;;4.30;;
74632;SDS011;63139;52.018;8.552;2023-05-17T03:05:13;10.07;;;4.47;;
74632;SDS011;63139;52.018;8.552;2023-05-17T03:07:48;8.45;;;3.67;;
74632;SDS011;63139;52.018;8.552;2023-05-17T03:10:16;27.95;;;5.40;;
74632;SDS011;63139;52.018;8.552;2023-05-17T03:12:45;22.25;;;4.30;;
74632;SDS011;63139;52.018;8.552;2023-05-17T03:15:16;19.85;;;4.72;;
74632;SDS011;63139;52.018;8.552;2023-05-17T03:17:46;17.25;;;5.00;;
74632;SDS011;63139;52.018;8.552;2023-05-17T03:20:16;20.02;;;4.75;;
74632;SDS011;63139;52.018;8.552;2023-05-17T03:22:47;18.42;;;4.82;;
74632;SDS011;63139;52.018;8.552;2023-05-17T03:25:15;18.70;;;4.50;;
74632;SDS011;63139;52.018;8.552;2023-05-17T03:27:44;17.58;;;4.72;;
74632;SDS011;63139;52.018;8.552;2023-05-17T03:30:13;17.63;;;5.05;;
74632;SDS011;63139;52.018;8.552;2023-05-17T03:32:42;18.58;;;4.90;;
74632;SDS011;63139;52.018;8.552;2023-05-17T03:35:12;16.83;;;5.05;;
74632;SDS011;63139;52.018;8.552;2023-05-17T03:37:43;15.88;;;4.45;;
74632;SDS011;63139;52.018;8.552;2023-05-17T03:40:13;20.92;;;5.05;;
74632;SDS011;63139;52.018;8.552;2023-05-17T03:42:41;20.17;;;4.72;;
74632;SDS011;63139;52.018;8.552;2023-05-17T03:45:10;12.10;;;4.10;;
74632;SDS011;63139;52.018;8.552;2023-05-17T03:47:38;21.67;;;5.38;;
74632;SDS011;63139;52.018;8.552;2023-05-17T03:50:11;15.45;;;4.50;;
74632;SDS011;63139;52.018;8.552;2023-05-17T03:52:39;24.80;;;5.65;;
74632;SDS011;63139;52.018;8.552;2023-05-17T03:55:08;16.80;;;4.72;;
74632;SDS011;63139;52.018;8.552;2023-05-17T03:57:38;14.90;;;3.75;;
74632;SDS011;63139;52.018;8.552;2023-05-17T04:00:06;19.98;;;5.13;;
74632;SDS011;63139;52.018;8.552;2023-05-17T04:02:43;11.07;;;4.10;;
74632;SDS011;63139;52.018;8.552;2023-05-17T04:05:11;11.38;;;4.18;;
74632;SDS011;63139;52.018;8.552;2023-05-17T04:07:41;9.43;;;3.92;;
74632;SDS011;63139;52.018;8.552;2023-05-17T04:10:11;14.15;;;4.90;;
74632;SDS011;63139;52.018;8.552;2023-05-17T04:12:40;19.17;;;5.30;;
74632;SDS011;63139;52.018;8.552;2023-05-17T04:15:09;13.70;;;4.65;;
74632;SDS011;63139;52.018;8.552;2023-05-17T04:17:39;18.55;;;5.00;;
74632;SDS011;63139;52.018;8.552;2023-05-17T04:20:08;22.17;;;5.25;;
74632;SDS011;63139;52.018;8.552;2023-05-17T04:22:38;15.73;;;5.13;;
74632;SDS011;63139;52.018;8.552;2023-05-17T04:25:08;15.68;;;5.28;;
74632;SDS011;63139;52.018;8.552;2023-05-17T04:27:38;27.30;;;6.10;;
74632;SDS011;63139;52.018;8.552;2023-05-17T04:30:09;21.27;;;5.88;;
74632;SDS011;63139;52.018;8.552;2023-05-17T04:32:38;17.55;;;5.18;;
74632;SDS011;63139;52.018;8.552;2023-05-17T04:35:06;15.90;;;4.82;;
74632;SDS011;63139;52.018;8.552;2023-05-17T04:37:35;19.70;;;4.47;;
74632;SDS011;63139;52.018;8.552;2023-05-17T04:40:16;17.70;;;4.60;;
74632;SDS011;63139;52.018;8.552;2023-05-17T04:42:45;20.80;;;4.90;;
74632;SDS011;63139;52.018;8.552;2023-05-17T04:45:16;14.27;;;4.65;;
74632;SDS011;63139;52.018;8.552;2023-05-17T04:47:44;21.60;;;5.43;;
74632;SDS011;63139;52.018;8.552;2023-05-17T04:50:13;17.65;;;5.55;;
74632;SDS011;63139;52.018;8.552;2023-05-17T04:52:42;12.25;;;4.13;;
74632;SDS011;63139;52.018;8.552;2023-05-17T04:55:10;13.30;;;4.32;;
74632;SDS011;63139;52.018;8.552;2023-05-17T04:57:38;16.38;;;4.43;;
74632;SDS011;63139;52.018;8.552;2023-05-17T05:00:09;9.68;;;3.97;;
74632;SDS011;63139;52.018;8.552;2023-05-17T05:02:44;20.65;;;4.40;;
74632;SDS011;63139;52.018;8.552;2023-05-17T05:05:13;15.73;;;4.25;;
74632;SDS011;63139;52.018;8.552;2023-05-17T05:07:43;12.93;;;3.80;;
74632;SDS011;63139;52.018;8.552;2023-05-17T05:10:12;15.95;;;3.30;;
74632;SDS011;63139;52.018;8.552;2023-05-17T05:12:40;10.18;;;3.38;;
74632;SDS011;63139;52.018;8.552;2023-05-17T05:15:09;13.02;;;3.35;;
74632;SDS011;63139;52.018;8.552;2023-05-17T05:17:40;19.27;;;4.03;;
74632;SDS011;63139;52.018;8.552;2023-05-17T05:20:12;20.25;;;3.42;;
74632;SDS011;63139;52.018;8.552;2023-05-17T05:22:41;18.20;;;4.18;;
74632;SDS011;63139;52.018;8.552;2023-05-17T05:25:10;15.30;;;3.83;;
74632;SDS011;63139;52.018;8.552;2023-05-17T05:27:39;17.42;;;3.70;;
74632;SDS011;63139;52.018;8.552;2023-05-17T05:30:07;14.55;;;3.45;;
74632;SDS011;63139;52.018;8.552;2023-05-17T05:32:36;14.07;;;3.35;;
74632;SDS011;63139;52.018;8.552;2023-05-17T05:35:04;12.82;;;3.08;;
74632;SDS011;63139;52.018;8.552;2023-05-17T05:37:34;18.13;;;3.95;;
74632;SDS011;63139;52.018;8.552;2023-05-17T05:40:03;18.13;;;4.07;;
74632;SDS011;63139;52.018;8.552;2023-05-17T05:42:31;13.57;;;3.78;;
74632;SDS011;63139;52.018;8.552;2023-05-17T05:45:00;19.33;;;3.58;;
74632;SDS011;63139;52.018;8.552;2023-05-17T05:47:28;16.08;;;4.03;;
74632;SDS011;63139;52.018;8.552;2023-05-17T05:49:56;15.27;;;3.08;;
74632;SDS011;63139;52.018;8.552;2023-05-17T05:52:24;17.15;;;3.53;;
74632;SDS011;63139;52.018;8.552;2023-05-17T05:54:54;17.98;;;3.60;;
74632;SDS011;63139;52.018;8.552;2023-05-17T05:57:22;12.48;;;3.42;;
74632;SDS011;63139;52.018;8.552;2023-05-17T05:59:50;16.00;;;3.03;;
74632;SDS011;63139;52.018;8.552;2023-05-17T06:02:18;17.45;;;3.75;;
74632;SDS011;63139;52.018;8.552;2023-05-17T06:04:47;21.55;;;4.38;;
74632;SDS011;63139;52.018;8.552;2023-05-17T06:07:15;13.57;;;3.50;;
74632;SDS011;63139;52.018;8.552;2023-05-17T06:09:43;14.10;;;3.55;;
74632;SDS011;63139;52.018;8.552;2023-05-17T06:12:13;11.05;;;3.42;;
74632;SDS011;63139;52.018;8.552;2023-05-17T06:14:41;13.63;;;3.15;;
74632;SDS011;63139;52.018;8.552;2023-05-17T06:17:10;14.10;;;3.70;;
74632;SDS011;63139;52.018;8.552;2023-05-17T06:19:38;17.23;;;3.80;;
74632;SDS011;63139;52.018;8.552;2023-05-17T06:22:06;16.42;;;3.90;;
74632;SDS011;63139;52.018;8.552;2023-05-17T06:24:36;13.30;;;3.35;;
74632;SDS011;63139;52.018;8.552;2023-05-17T06:27:04;14.70;;;3.42;;
74632;SDS011;63139;52.018;8.552;2023-05-17T06:29:34;13.82;;;2.90;;
74632;SDS011;63139;52.018;8.552;2023-05-17T06:32:02;13.43;;;2.90;;
74632;SDS011;63139;52.018;8.552;2023-05-17T06:34:31;16.95;;;3.15;;
74632;SDS011;63139;52.018;8.552;2023-05-17T06:37:02;14.55;;;3.20;;
74632;SDS011;63139;52.018;8.552;2023-05-17T06:39:30;12.80;;;2.92;;
74632;SDS011;63139;52.018;8.552;2023-05-17T06:41:58;11.73;;;2.85;;
74632;SDS011;63139;52.018;8.552;2023-05-17T06:44:31;18.95;;;3.13;;
74632;SDS011;63139;52.018;8.552;2023-05-17T06:47:01;10.52;;;2.45;;
74632;SDS011;63139;52.018;8.552;2023-05-17T06:49:29;12.68;;;2.65;;
74632;SDS011;63139;52.018;8.552;2023-05-17T06:51:57;11.57;;;2.78;;
74632;SDS011;63139;52.018;8.552;2023-05-17T06:54:28;9.02;;;2.70;;
74632;SDS011;63139;52.018;8.552;2023-05-17T06:56:58;16.85;;;2.10;;
74632;SDS011;63139;52.018;8.552;2023-05-17T06:59:27;13.93;;;2.70;;
74632;SDS011;63139;52.018;8.552;2023-05-17T07:01:55;9.30;;;2.17;;
74632;SDS011;63139;52.018;8.552;2023-05-17T07:04:27;11.90;;;2.28;;
74632;SDS011;63139;52.018;8.552;2023-05-17T07:06:55;9.80;;;2.50;;
74632;SDS011;63139;52.018;8.552;2023-05-17T07:09:23;9.05;;;2.42;;
74632;SDS011;63139;52.018;8.552;2023-05-17T07:11:51;10.65;;;2.10;;
74632;SDS011;63139;52.018;8.552;2023-05-17T07:14:19;9.35;;;1.90;;
74632;SDS011;63139;52.018;8.552;2023-05-17T07:16:47;12.18;;;2.17;;
74632;SDS011;63139;52.018;8.552;2023-05-17T07:19:15;8.88;;;2.17;;
74632;SDS011;63139;52.018;8.552;2023-05-17T07:21:45;10.23;;;1.80;;
74632;SDS011;63139;52.018;8.552;2023-05-17T07:24:13;12.55;;;2.15;;
74632;SDS011;63139;52.018;8.552;2023-05-17T07:26:41;11.00;;;2.20;;
74632;SDS011;63139;52.018;8.552;2023-05-17T07:29:10;14.77;;;2.63;;
74632;SDS011;63139;52.018;8.552;2023-05-17T07:31:38;12.30;;;2.20;;
74632;SDS011;63139;52.018;8.552;2023-05-17T07:34:07;10.23;;;2.83;;
74632;SDS011;63139;52.018;8.552;2023-05-17T07:36:36;10.15;;;1.70;;
74632;SDS011;63139;52.018;8.552;2023-05-17T07:39:05;10.85;;;2.10;;
74632;SDS011;63139;52.018;8.552;2023-05-17T07:41:34;11.18;;;2.10;;
74632;SDS011;63139;52.018;8.552;2023-05-17T07:44:02;8.32;;;2.00;;
74632;SDS011;63139;52.018;8.552;2023-05-17T07:46:30;14.23;;;2.33;;
74632;SDS011;63139;52.018;8.552;2023-05-17T07:48:59;13.18;;;2.25;;
74632;SDS011;63139;52.018;8.552;2023-05-17T07:51:27;5.10;;;1.75;;
74632;SDS011;63139;52.018;8.552;2023-05-17T07:53:57;11.05;;;2.13;;
74632;SDS011;63139;52.018;8.552;2023-05-17T07:56:26;7.43;;;1.50;;
74632;SDS011;63139;52.018;8.552;2023-05-17T07:58:54;13.45;;;1.98;;
74632;SDS011;63139;52.018;8.552;2023-05-17T08:01:23;11.45;;;1.90;;
74632;SDS011;63139;52.018;8.552;2023-05-17T08:03:51;10.32;;;1.95;;
74632;SDS011;63139;52.018;8.552;2023-05-17T08:06:19;10.30;;;1.95;;
74632;SDS011;63139;52.018;8.552;2023-05-17T08:08:47;9.77;;;1.95;;
74632;SDS011;63139;52.018;8.552;2023-05-17T08:11:15;7.85;;;2.40;;
74632;SDS011;63139;52.018;8.552;2023-05-17T08:13:45;9.18;;;2.00;;
74632;SDS011;63139;52.018;8.552;2023-05-17T08:16:13;7.40;;;2.03;;
74632;SDS011;63139;52.018;8.552;2023-05-17T08:18:41;9.88;;;1.80;;
74632;SDS011;63139;52.018;8.552;2023-05-17T08:21:11;10.85;;;1.75;;
74632;SDS011;63139;52.018;8.552;2023-05-17T08:23:39;6.28;;;1.55;;
74632;SDS011;63139;52.018;8.552;2023-05-17T08:26:08;8.70;;;1.85;;
74632;SDS011;63139;52.018;8.552;2023-05-17T08:28:37;13.73;;;1.92;;
74632;SDS011;63139;52.018;8.552;2023-05-17T08:31:08;5.93;;;1.70;;
74632;SDS011;63139;52.018;8.552;2023-05-17T08:33:37;10.68;;;1.73;;
74632;SDS011;63139;52.018;8.552;2023-05-17T08:36:05;7.13;;;1.52;;
74632;SDS011;63139;52.018;8.552;2023-05-17T08:38:34;6.63;;;1.58;;
74632;SDS011;63139;52.018;8.552;2023-05-17T08:41:02;10.90;;;1.40;;
74632;SDS011;63139;52.018;8.552;2023-05-17T08:43:31;8.20;;;1.80;;
74632;SDS011;63139;52.018;8.552;2023-05-17T08:45:59;6.32;;;1.88;;
74632;SDS011;63139;52.018;8.552;2023-05-17T08:48:31;5.60;;;1.63;;
74632;SDS011;63139;52.018;8.552;2023-05-17T08:51:02;7.03;;;1.67;;
74632;SDS011;63139;52.018;8.552;2023-05-17T08:53:30;6.85;;;1.63;;
74632;SDS011;63139;52.018;8.552;2023-05-17T08:56:01;9.98;;;2.10;;
74632;SDS011;63139;52.018;8.552;2023-05-17T08:58:33;8.75;;;1.90;;
74632;SDS011;63139;52.018;8.552;2023-05-17T09:01:22;13.23;;;2.25;;
74632;SDS011;63139;52.018;8.552;2023-05-17T09:03:55;8.65;;;1.90;;
74632;SDS011;63139;52.018;8.552;2023-05-17T09:06:23;5.47;;;1.52;;
74632;SDS011;63139;52.018;8.552;2023-05-17T09:08:52;7.28;;;1.92;;
74632;SDS011;63139;52.018;8.552;2023-05-17T09:11:24;11.07;;;1.98;;
74632;SDS011;63139;52.018;8.552;2023-05-17T09:13:56;14.10;;;2.20;;
74632;SDS011;63139;52.018;8.552;2023-05-17T09:16:26;5.35;;;1.60;;
74632;SDS011;63139;52.018;8.552;2023-05-17T09:18:57;8.30;;;1.80;;
74632;SDS011;63139;52.018;8.552;2023-05-17T09:21:26;7.38;;;1.73;;
74632;SDS011;63139;52.018;8.552;2023-05-17T09:23:56;8.15;;;1.77;;
74632;SDS011;63139;52.018;8.552;2023-05-17T09:26:36;8.32;;;1.83;;
74632;SDS011;63139;52.018;8.552;2023-05-17T09:29:09;8.35;;;1.95;;
74632;SDS011;63139;52.018;8.552;2023-05-17T09:31:38;10.57;;;2.05;;
74632;SDS011;63139;52.018;8.552;2023-05-17T09:34:08;5.40;;;1.40;;
74632;SDS011;63139;52.018;8.552;2023-05-17T09:36:38;9.07;;;1.90;;
74632;SDS011;63139;52.018;8.552;2023-05-17T09:39:10;5.78;;;1.60;;
74632;SDS011;63139;52.018;8.552;2023-05-17T09:41:40;9.23;;;1.92;;
74632;SDS011;63139;52.018;8.552;2023-05-17T09:44:11;5.05;;;1.50;;
74632;SDS011;63139;52.018;8.552;2023-05-17T09:46:41;6.88;;;2.17;;
74632;SDS011;63139;52.018;8.552;2023-05-17T09:49:12;6.93;;;1.92;;
74632;SDS011;63139;52.018;8.552;2023-05-17T09:51:41;7.88;;;2.00;;
74632;SDS011;63139;52.018;8.552;2023-05-17T09:54:11;7.63;;;1.50;;
74632;SDS011;63139;52.018;8.552;2023-05-17T09:56:39;5.80;;;1.52;;
74632;SDS011;63139;52.018;8.552;2023-05-17T09:59:12;8.23;;;1.40;;
74632;SDS011;63139;52.018;8.552;2023-05-17T10:01:41;11.60;;;1.80;;
74632;SDS011;63139;52.018;8.552;2023-05-17T10:04:12;8.35;;;1.60;;
74632;SDS011;63139;52.018;8.552;2023-05-17T10:06:46;14.57;;;2.22;;
74632;SDS011;63139;52.018;8.552;2023-05-17T10:09:20;7.50;;;1.85;;
74632;SDS011;63139;52.018;8.552;2023-05-17T10:11:49;6.78;;;1.90;;
74632;SDS011;63139;52.018;8.552;2023-05-17T10:14:20;7.60;;;1.80;;
74632;SDS011;63139;52.018;8.552;2023-05-17T10:16:53;8.13;;;1.73;;
74632;SDS011;63139;52.018;8.552;2023-05-17T10:19:24;11.30;;;1.98;;
74632;SDS011;63139;52.018;8.552;2023-05-17T10:21:53;10.10;;;2.22;;
74632;SDS011;63139;52.018;8.552;2023-05-17T10:24:36;7.72;;;1.70;;
74632;SDS011;63139;52.018;8.552;2023-05-17T10:27:05;9.30;;;1.92;;
74632;SDS011;63139;52.018;8.552;2023-05-17T10:29:34;7.03;;;1.70;;
74632;SDS011;63139;52.018;8.552;2023-05-17T10:32:06;9.18;;;2.10;;
74632;SDS011;63139;52.018;8.552;2023-05-17T10:34:37;10.43;;;2.20;;
74632;SDS011;63139;52.018;8.552;2023-05-17T10:40:00;6.63;;;2.03;;
74632;SDS011;63139;52.018;8.552;2023-05-17T10:42:28;6.82;;;1.70;;
74632;SDS011;63139;52.018;8.552;2023-05-17T10:44:59;9.40;;;2.13;;
74632;SDS011;63139;52.018;8.552;2023-05-17T10:47:30;11.55;;;2.10;;
74632;SDS011;63139;52.018;8.552;2023-05-17T10:50:01;11.50;;;2.20;;
74632;SDS011;63139;52.018;8.552;2023-05-17T10:52:36;7.65;;;2.20;;
74632;SDS011;63139;52.018;8.552;2023-05-17T10:55:05;6.32;;;1.95;;
74632;SDS011;63139;52.018;8.552;2023-05-17T10:57:35;11.00;;;2.42;;
74632;SDS011;63139;52.018;8.552;2023-05-17T11:00:18;10.20;;;2.17;;
74632;SDS011;63139;52.018;8.552;2023-05-17T11:02:47;9.38;;;1.90;;
74632;SDS011;63139;52.018;8.552;2023-05-17T11:05:24;12.35;;;2.42;;
74632;SDS011;63139;52.018;8.552;2023-05-17T11:08:03;6.97;;;1.85;;
74632;SDS011;63139;52.018;8.552;2023-05-17T11:13:42;10.07;;;2.45;;
74632;SDS011;63139;52.018;8.552;2023-05-17T11:16:13;12.77;;;2.05;;
74632;SDS011;63139;52.018;8.552;2023-05-17T11:18:47;7.00;;;2.53;;
74632;SDS011;63139;52.018;8.552;2023-05-17T11:21:17;8.73;;;2.20;;
74632;SDS011;63139;52.018;8.552;2023-05-17T11:23:47;7.05;;;2.20;;
74632;SDS011;63139;52.018;8.552;2023-05-17T11:26:20;10.45;;;2.55;;
74632;SDS011;63139;52.018;8.552;2023-05-17T11:28:56;6.40;;;2.05;;
74632;SDS011;63139;52.018;8.552;2023-05-17T11:31:28;6.88;;;2.38;;
74632;SDS011;63139;52.018;8.552;2023-05-17T11:33:58;10.43;;;2.45;;
74632;SDS011;63139;52.018;8.552;2023-05-17T11:36:28;8.25;;;2.30;;
74632;SDS011;63139;52.018;8.552;2023-05-17T11:39:09;8.35;;;2.30;;
74632;SDS011;63139;52.018;8.552;2023-05-17T11:41:39;6.78;;;1.85;;
74632;SDS011;63139;52.018;8.552;2023-05-17T11:44:15;9.27;;;2.17;;
74632;SDS011;63139;52.018;8.552;2023-05-17T11:46:50;7.82;;;2.17;;
74632;SDS011;63139;52.018;8.552;2023-05-17T11:49:19;16.00;;;2.85;;
74632;SDS011;63139;52.018;8.552;2023-05-17T11:52:03;8.40;;;2.22;;
74632;SDS011;63139;52.018;8.552;2023-05-17T11:54:32;7.68;;;2.00;;
74632;SDS011;63139;52.018;8.552;2023-05-17T11:57:01;7.50;;;2.17;;
74632;SDS011;63139;52.018;8.552;2023-05-17T11:59:35;9.25;;;2.17;;
74632;SDS011;63139;52.018;8.552;2023-05-17T12:02:05;5.78;;;1.80;;
74632;SDS011;63139;52.018;8.552;2023-05-17T12:04:34;8.98;;;2.30;;
74632;SDS011;63139;52.018;8.552;2023-05-17T12:07:05;7.35;;;1.75;;
74632;SDS011;63139;52.018;8.552;2023-05-17T12:09:37;6.68;;;2.10;;
74632;SDS011;63139;52.018;8.552;2023-05-17T12:12:06;8.68;;;2.17;;
74632;SDS011;63139;52.018;8.552;2023-05-17T12:14:35;9.40;;;2.05;;
74632;SDS011;63139;52.018;8.552;2023-05-17T12:17:04;7.65;;;1.90;;
74632;SDS011;63139;52.018;8.552;2023-05-17T12:19:35;5.90;;;1.70;;
74632;SDS011;63139;52.018;8.552;2023-05-17T12:22:08;7.03;;;2.35;;
74632;SDS011;63139;52.018;8.552;2023-05-17T12:24:39;8.27;;;1.95;;
74632;SDS011;63139;52.018;8.552;2023-05-17T12:27:09;7.43;;;2.22;;
74632;SDS011;63139;52.018;8.552;2023-05-17T12:29:37;9.18;;;2.05;;
74632;SDS011;63139;52.018;8.552;2023-05-17T12:32:06;11.02;;;2.17;;
74632;SDS011;63139;52.018;8.552;2023-05-17T12:34:36;7.05;;;2.20;;
74632;SDS011;63139;52.018;8.552;2023-05-17T12:37:07;9.45;;;2.33;;
74632;SDS011;63139;52.018;8.552;2023-05-17T12:39:36;7.13;;;2.15;;
74632;SDS011;63139;52.018;8.552;2023-05-17T12:42:05;15.23;;;2.22;;
74632;SDS011;63139;52.018;8.552;2023-05-17T12:44:35;5.97;;;1.90;;
74632;SDS011;63139;52.018;8.552;2023-05-17T12:47:03;7.35;;;1.77;;
74632;SDS011;63139;52.018;8.552;2023-05-17T12:49:36;10.93;;;2.53;;
74632;SDS011;63139;52.018;8.552;2023-05-17T12:52:05;12.23;;;2.33;;
74632;SDS011;63139;52.018;8.552;2023-05-17T12:54:36;10.05;;;2.42;;
74632;SDS011;63139;52.018;8.552;2023-05-17T12:57:09;10.65;;;2.38;;
74632;SDS011;63139;52.018;8.552;2023-05-17T12:59:46;6.45;;;2.10;;
74632;SDS011;63139;52.018;8.552;2023-05-17T13:02:15;8.18;;;2.40;;
74632;SDS011;63139;52.018;8.552;2023-05-17T13:04:44;6.03;;;1.80;;
74632;SDS011;63139;52.018;8.552;2023-05-17T13:07:19;9.68;;;2.45;;
74632;SDS011;63139;52.018;8.552;2023-05-17T13:09:48;6.25;;;2.33;;
74632;SDS011;63139;52.018;8.552;2023-05-17T13:12:17;6.05;;;2.10;;
74632;SDS011;63139;52.018;8.552;2023-05-17T13:14:47;6.22;;;2.08;;
74632;SDS011;63139;52.018;8.552;2023-05-17T13:17:18;8.32;;;2.38;;
74632;SDS011;63139;52.018;8.552;2023-05-17T13:19:50;9.10;;;2.08;;
74632;SDS011;63139;52.018;8.552;2023-05-17T13:22:20;6.55;;;2.15;;
74632;SDS011;63139;52.018;8.552;2023-05-17T13:24:50;9.40;;;2.70;;
74632;SDS011;63139;52.018;8.552;2023-05-17T13:27:18;7.70;;;1.95;;
74632;SDS011;63139;52.018;8.552;2023-05-17T13:29:47;6.40;;;2.35;;
74632;SDS011;63139;52.018;8.552;2023-05-17T13:32:15;11.25;;;2.10;;
74632;SDS011;63139;52.018;8.552;2023-05-17T13:34:43;10.90;;;2.50;;
74632;SDS011;63139;52.018;8.552;2023-05-17T13:37:11;7.78;;;2.38;;
74632;SDS011;63139;52.018;8.552;2023-05-17T13:39:40;7.38;;;2.08;;
74632;SDS011;63139;52.018;8.552;2023-05-17T13:42:09;6.97;;;2.20;;
74632;SDS011;63139;52.018;8.552;2023-05-17T13:44:37;8.82;;;2.20;;
74632;SDS011;63139;52.018;8.552;2023-05-17T13:47:06;9.00;;;2.30;;
74632;SDS011;63139;52.018;8.552;2023-05-17T13:49:34;3.97;;;1.90;;
74632;SDS011;63139;52.018;8.552;2023-05-17T13:52:02;13.20;;;2.03;;
74632;SDS011;63139;52.018;8.552;2023-05-17T13:54:34;7.25;;;2.35;;
74632;SDS011;63139;52.018;8.552;2023-05-17T13:57:05;9.85;;;2.47;;
74632;SDS011;63139;52.018;8.552;2023-05-17T13:59:33;9.90;;;2.00;;
74632;SDS011;63139;52.018;8.552;2023-05-17T14:02:02;10.88;;;2.53;;
74632;SDS011;63139;52.018;8.552;2023-05-17T14:04:30;9.75;;;2.63;;
74632;SDS011;63139;52.018;8.552;2023-05-17T14:06:58;7.75;;;2.20;;
74632;SDS011;63139;52.018;8.552;2023-05-17T14:09:27;7.82;;;2.22;;
74632;SDS011;63139;52.018;8.552;2023-05-17T14:11:58;9.00;;;2.33;;
74632;SDS011;63139;52.018;8.552;2023-05-17T14:14:28;6.60;;;1.88;;
74632;SDS011;63139;52.018;8.552;2023-05-17T14:16:57;8.48;;;2.20;;
74632;SDS011;63139;52.018;8.552;2023-05-17T14:19:26;8.60;;;2.28;;
74632;SDS011;63139;52.018;8.552;2023-05-17T14:21:55;7.03;;;2.05;;
74632;SDS011;63139;52.018;8.552;2023-05-17T14:24:23;6.10;;;2.17;;
74632;SDS011;63139;52.018;8.552;2023-05-17T14:26:51;7.22;;;1.80;;
74632;SDS011;63139;52.018;8.552;2023-05-17T14:29:19;11.85;;;2.78;;
74632;SDS011;63139;52.018;8.552;2023-05-17T14:31:49;6.35;;;2.20;;
74632;SDS011;63139;52.018;8.552;2023-05-17T14:34:17;9.00;;;2.30;;
74632;SDS011;63139;52.018;8.552;2023-05-17T14:36:45;11.02;;;2.38;;
74632;SDS011;63139;52.018;8.552;2023-05-17T14:39:13;4.93;;;1.98;;
74632;SDS011;63139;52.018;8.552;2023-05-17T14:41:41;5.13;;;2.15;;
74632;SDS011;63139;52.018;8.552;2023-05-17T14:44:10;8.70;;;2.17;;
74632;SDS011;63139;52.018;8.552;2023-05-17T14:46:38;9.25;;;2.22;;
74632;SDS011;63139;52.018;8.552;2023-05-17T14:49:08;9.20;;;2.15;;
74632;SDS011;63139;52.018;8.552;2023-05-17T14:51:36;7.03;;;1.90;;
74632;SDS011;63139;52.018;8.552;2023-05-17T14:54:05;4.65;;;2.28;;
74632;SDS011;63139;52.018;8.552;2023-05-17T14:56:33;9.40;;;2.35;;
74632;SDS011;63139;52.018;8.552;2023-05-17T14:59:01;5.70;;;2.10;;
74632;SDS011;63139;52.018;8.552;2023-05-17T15:01:29;6.35;;;2.20;;
74632;SDS011;63139;52.018;8.552;2023-05-17T15:03:57;4.38;;;2.20;;